LFOPLFBI

Guest
Details From LFOP - Rouen Vallee de la Seine
To LFBI - Poitiers Biard
Flight Number -
Tags generated
Created
Modified
Stats Distance 172 nm / 318 km
Max Altitude 22,800 ft / 6,949 m
Waypoints 3
Social Downloads 0
Likes 0
Share VATSIM

Download

Looking for another format? Having issues loading an existing format? Contact us
Advertisement - Login to hide

Notes

Basic altitude profile: - Ascent Rate: 2500ft/min - Ascent Speed: 250kts - Cruise Altitude: 35000ft - Cruise Speed: 420kts - Descent Rate: 1500ft/min - Descent Speed: 250kts Options: - Use NATs: yes - Use PACOTS: yes - Use low airways: yes - Use high airways: yes

Route

LFOP ROMLO LFBI

ID Type Via Altitude Latitude Longitude Leg Dist Tot Dist Heading (true) Name
O LFOP APT - 0 ft / 0 m 49.38521˚ 1.17619˚ - 0 nm - Rouen Vallee de la Seine
ROMLO FIX - 22,800 ft / 6,949 m 48.34444˚ 0.84167˚ 63 nm 63 nm 192° / 192° -
O LFBI APT - 0 ft / 0 m 46.58874˚ 0.30794˚ 107 nm 171 nm 192° / 191° Poitiers Biard

Altitude Profile

Advertisement - Login to hide

Weather


0- 5 10 15 20 25 30 35+ Temperature / ° C

Clouds and Precipitation
Forecast for 2017-12-12 06:00 UTC. Updated 2 hours ago

Ground ~20,000 ft ~40,000 ft Winds

LFOP

Details ICAO LFOP (URO)
Name Rouen Vallee de la Seine
Region France
Timezone Europe/Paris (UTC+1.0)
Stats Elevation 512 ft / 156 m (AMSL)
Location 49.385211° 1.176192°
Runways 1
Magnetic Variation 0.183° E

METAR

LFOP 120300Z AUTO 28007KT 9999 FEW034 00/M01 Q1002

Decode

TAF

TAF LFOP 112126Z 1121/1218 CNL

Decode

Departure Runways

ID Width Length Bearing (true) Bearing (mag) Surface Threshold Offset Overrun Length
04 148 ft / 45 m 5,577 ft / 1,700 m 41.28° 41.10° Asphalt 0 ft / 0 m 0 ft / 0 m
22 148 ft / 45 m 5,577 ft / 1,700 m 221.29° 221.11° Asphalt 0 ft / 0 m 0 ft / 0 m

LFBI

Details ICAO LFBI (PIS)
Name Poitiers Biard
Region France
Timezone Europe/Paris (UTC+1.0)
Stats Elevation 423 ft / 129 m (AMSL)
Location 46.588739° 0.307939°
Runways 1
Magnetic Variation 0.123° E

METAR

LFBI 120300Z AUTO 26003KT CAVOK 00/M01 Q1006 TEMPO 4000 BR

Decode

TAF

TAF LFBI 112300Z 1200/1224 32005KT CAVOK TEMPO 1203/1209 4000 BR PROB30 TEMPO 1206/1209 0800 FG VV/// BECMG 1210/1212 21010KT TEMPO 1218/1222 1000 BR BKN003

Decode

Destination Runways

ID Width Length Bearing (true) Bearing (mag) Surface Threshold Offset Overrun Length
03 148 ft / 45 m 7,725 ft / 2,355 m 30.51° 30.39° Asphalt 0 ft / 0 m 164 ft / 50 m
21 148 ft / 45 m 7,725 ft / 2,355 m 210.53° 210.41° Asphalt 0 ft / 0 m 0 ft / 0 m

Approach Navaids

Runway Type Ident Frequency Range Bearing (true) Bearing (mag) Slope Elevation
21 Localiser PT 110.95 MHz 18 nm / 33 km 210.51° 210.39° - 412 ft / 126 m (AMSL)
21 Glidescope PT 110.95 MHz 10 nm / 19 km 210.52° 210.40° 3.00° 412 ft / 126 m (AMSL)
21 DME PT 110.95 MHz 18 nm / 33 km - - - 455 ft / 139 m (AMSL)